createdAt,value
2018-07-09T00:01:41.236Z,17.10
2018-07-09T00:04:10.047Z,17.10
2018-07-09T00:06:38.866Z,17.00
2018-07-09T00:09:07.728Z,17.00
2018-07-09T00:11:36.540Z,17.00
2018-07-09T00:14:05.445Z,16.90
2018-07-09T00:16:34.236Z,16.80
2018-07-09T00:19:03.037Z,16.80
2018-07-09T00:21:31.863Z,16.80
2018-07-09T00:24:00.775Z,16.70
2018-07-09T00:26:29.656Z,16.60
2018-07-09T00:28:58.471Z,16.60
2018-07-09T00:31:27.267Z,16.50
2018-07-09T00:33:56.060Z,16.50
2018-07-09T00:36:24.875Z,16.50
2018-07-09T00:38:53.677Z,16.40
2018-07-09T00:41:23.496Z,16.30
2018-07-09T00:43:52.712Z,16.30
2018-07-09T00:46:21.504Z,16.20
2018-07-09T00:48:50.293Z,16.10
2018-07-09T00:51:19.167Z,16.10
2018-07-09T00:53:47.986Z,16.10
2018-07-09T00:56:16.780Z,16.00
2018-07-09T00:58:45.612Z,16.00
2018-07-09T01:01:14.407Z,16.00
2018-07-09T01:03:43.213Z,15.90
2018-07-09T01:06:12.024Z,15.90
2018-07-09T01:08:40.836Z,15.80
2018-07-09T01:11:21.111Z,15.80
2018-07-09T01:13:49.940Z,15.70
2018-07-09T01:16:18.744Z,15.70
2018-07-09T01:18:47.556Z,15.60
2018-07-09T01:21:16.364Z,15.60
2018-07-09T01:23:45.197Z,15.50
2018-07-09T01:26:13.992Z,15.50
2018-07-09T01:28:42.820Z,15.40
2018-07-09T01:31:11.635Z,15.30
2018-07-09T01:33:40.449Z,15.30
2018-07-09T01:36:09.264Z,15.30
2018-07-09T01:38:38.064Z,15.30
2018-07-09T01:41:06.867Z,15.20
2018-07-09T01:43:36.576Z,15.10
2018-07-09T01:46:05.430Z,15.10
2018-07-09T01:48:34.224Z,15.00
2018-07-09T01:51:03.029Z,15.00
2018-07-09T01:53:31.832Z,15.00
2018-07-09T01:56:00.642Z,14.90
2018-07-09T01:58:29.466Z,14.90
2018-07-09T02:00:58.273Z,14.90
2018-07-09T02:03:27.085Z,14.80
2018-07-09T02:05:55.933Z,14.70
2018-07-09T02:08:24.795Z,14.70
2018-07-09T02:10:53.609Z,14.60
2018-07-09T02:13:22.429Z,14.60
2018-07-09T02:15:51.233Z,14.50
2018-07-09T02:18:20.049Z,14.60
2018-07-09T02:20:48.872Z,14.50
2018-07-09T02:23:17.685Z,14.50
2018-07-09T02:25:46.482Z,14.40
2018-07-09T02:28:15.299Z,14.40
2018-07-09T02:30:44.100Z,14.40
2018-07-09T02:33:12.925Z,14.30
2018-07-09T02:38:10.550Z,14.40
2018-07-09T02:40:39.356Z,14.30
2018-07-09T02:43:08.186Z,14.30
2018-07-09T02:45:37.419Z,14.20
2018-07-09T02:48:06.417Z,14.10
2018-07-09T02:50:35.404Z,14.10
2018-07-09T02:53:04.215Z,14.10
2018-07-09T02:55:33.189Z,14.10
2018-07-09T02:58:01.991Z,14.10
2018-07-09T03:00:30.956Z,14.00
2018-07-09T03:02:59.780Z,14.00
2018-07-09T03:05:28.583Z,14.00
2018-07-09T03:07:57.433Z,13.90
2018-07-09T03:10:26.236Z,13.90
2018-07-09T03:12:55.047Z,13.90
2018-07-09T03:15:23.879Z,13.90
2018-07-09T03:17:52.688Z,13.90
2018-07-09T03:20:21.491Z,13.90
2018-07-09T03:22:50.309Z,13.90
2018-07-09T03:25:19.111Z,14.00
2018-07-09T03:27:47.953Z,14.10
2018-07-09T03:30:16.751Z,14.20
2018-07-09T03:32:45.565Z,14.20
2018-07-09T03:35:14.374Z,14.30
2018-07-09T03:37:43.194Z,14.40
2018-07-09T03:40:12.007Z,14.50
2018-07-09T03:42:40.821Z,14.60
2018-07-09T03:45:09.631Z,14.60
2018-07-09T03:47:38.447Z,14.70
2018-07-09T03:50:07.323Z,14.80
2018-07-09T03:52:36.589Z,14.90
2018-07-09T03:55:05.389Z,15.10
2018-07-09T03:57:34.201Z,15.30
2018-07-09T04:00:03.006Z,15.40
2018-07-09T04:02:31.816Z,15.50
2018-07-09T04:05:00.645Z,15.60
2018-07-09T04:07:29.462Z,15.70
2018-07-09T04:09:58.276Z,15.90
2018-07-09T04:12:27.084Z,16.00
2018-07-09T04:14:55.901Z,16.10
2018-07-09T04:17:24.721Z,16.30
2018-07-09T04:19:53.553Z,16.40
2018-07-09T04:22:22.361Z,16.60
2018-07-09T04:24:51.175Z,16.80
2018-07-09T04:27:19.979Z,16.90
2018-07-09T04:29:48.797Z,17.00
2018-07-09T04:32:17.607Z,17.20
2018-07-09T04:34:46.458Z,17.10
2018-07-09T04:37:15.244Z,17.10
2018-07-09T04:39:44.060Z,17.10
2018-07-09T04:42:12.864Z,17.10
2018-07-09T04:44:41.676Z,16.80
2018-07-09T04:47:10.475Z,16.70
2018-07-09T04:49:39.364Z,16.80
2018-07-09T04:52:08.252Z,16.90
2018-07-09T04:54:37.144Z,16.90
2018-07-09T04:57:05.956Z,16.90
2018-07-09T04:59:34.767Z,16.90
2018-07-09T05:02:03.575Z,16.90
2018-07-09T05:04:32.395Z,16.80
2018-07-09T05:07:01.219Z,16.70
2018-07-09T05:09:30.031Z,16.60
2018-07-09T05:11:58.857Z,16.70
2018-07-09T05:14:27.676Z,16.50
2018-07-09T05:16:56.495Z,16.40
2018-07-09T05:19:25.296Z,16.50
2018-07-09T05:21:54.098Z,16.80
2018-07-09T05:24:22.912Z,17.20
2018-07-09T05:26:51.715Z,17.90
2018-07-09T05:29:20.532Z,18.80
2018-07-09T05:31:49.331Z,19.90
2018-07-09T05:34:18.146Z,22.00
2018-07-09T05:36:46.974Z,24.10
2018-07-09T05:39:15.945Z,25.30
2018-07-09T05:41:44.846Z,26.80
2018-07-09T05:44:13.632Z,27.00
2018-07-09T05:46:42.453Z,25.50
2018-07-09T05:49:11.290Z,25.10
2018-07-09T05:51:40.084Z,25.10
2018-07-09T05:54:08.895Z,25.20
2018-07-09T05:56:37.708Z,25.50
2018-07-09T05:59:06.525Z,25.50
2018-07-09T06:01:35.323Z,24.60
2018-07-09T06:04:04.169Z,24.60
2018-07-09T06:06:32.972Z,23.10
2018-07-09T06:09:01.825Z,22.50
2018-07-09T06:11:30.647Z,23.00
2018-07-09T06:13:59.436Z,23.80
2018-07-09T06:16:28.253Z,24.00
2018-07-09T06:18:57.056Z,22.60
2018-07-09T06:21:25.881Z,21.80
2018-07-09T06:23:54.700Z,21.80
2018-07-09T06:26:23.517Z,22.30
2018-07-09T06:28:52.460Z,23.70
2018-07-09T06:31:21.273Z,25.50
2018-07-09T06:33:50.072Z,25.60
2018-07-09T06:36:18.899Z,25.40
2018-07-09T06:38:47.716Z,25.70
2018-07-09T06:41:16.540Z,25.80
2018-07-09T06:43:45.353Z,25.20
2018-07-09T06:46:14.215Z,24.90
2018-07-09T06:48:43.033Z,23.70
2018-07-09T06:51:11.845Z,22.50
2018-07-09T06:56:09.231Z,21.20
2018-07-09T06:58:38.045Z,20.80
2018-07-09T07:01:06.842Z,20.70
2018-07-09T07:03:35.652Z,20.30
2018-07-09T07:06:04.481Z,20.50
2018-07-09T07:08:33.296Z,21.00
2018-07-09T07:11:02.109Z,21.60
2018-07-09T07:13:30.930Z,22.60
2018-07-09T07:15:59.744Z,24.30
2018-07-09T07:18:28.555Z,25.90
2018-07-09T07:20:57.398Z,26.90
2018-07-09T07:23:26.182Z,27.30
2018-07-09T07:25:54.989Z,27.20
2018-07-09T07:28:23.793Z,27.60
2018-07-09T07:30:52.605Z,27.90
2018-07-09T07:33:21.572Z,28.10
2018-07-09T07:35:50.397Z,28.50
2018-07-09T07:38:19.200Z,28.00
2018-07-09T07:40:48.007Z,28.20
2018-07-09T07:43:16.820Z,28.00
2018-07-09T07:45:45.634Z,28.00
2018-07-09T07:48:14.450Z,27.50
2018-07-09T07:50:43.252Z,26.40
2018-07-09T07:53:12.065Z,25.60
2018-07-09T07:55:41.096Z,24.90
2018-07-09T07:58:09.969Z,24.50
2018-07-09T08:00:38.781Z,24.40
2018-07-09T08:03:07.597Z,24.60
2018-07-09T08:05:36.423Z,24.90
2018-07-09T08:08:05.215Z,25.20
2018-07-09T08:10:34.057Z,25.10
2018-07-09T08:13:27.173Z,24.90
2018-07-09T08:15:31.688Z,24.90
2018-07-09T08:18:00.491Z,24.90
2018-07-09T08:20:29.291Z,24.90
2018-07-09T08:22:58.277Z,24.70
2018-07-09T08:25:27.120Z,24.60
2018-07-09T08:27:55.917Z,24.70
2018-07-09T08:30:24.721Z,24.70
2018-07-09T08:32:53.528Z,24.70
2018-07-09T08:35:22.350Z,24.80
2018-07-09T08:37:51.168Z,25.10
2018-07-09T08:40:19.984Z,25.40
2018-07-09T08:42:48.791Z,25.50
2018-07-09T08:45:17.587Z,25.70
2018-07-09T08:47:46.389Z,25.60
2018-07-09T08:50:15.185Z,25.40
2018-07-09T08:52:44.009Z,25.10
2018-07-09T08:55:12.817Z,25.10
2018-07-09T08:57:41.652Z,25.30
2018-07-09T09:00:10.502Z,25.80
2018-07-09T09:02:39.288Z,25.70
2018-07-09T09:07:36.609Z,26.00
2018-07-09T09:10:05.431Z,26.20
2018-07-09T09:12:34.232Z,26.30
2018-07-09T09:15:03.031Z,26.50
2018-07-09T09:17:31.843Z,26.50
2018-07-09T09:20:00.658Z,26.60
2018-07-09T09:22:29.475Z,26.40
2018-07-09T09:24:58.292Z,26.30
2018-07-09T09:27:27.099Z,26.30
2018-07-09T09:29:55.952Z,26.30
2018-07-09T09:32:24.766Z,26.60
2018-07-09T09:34:53.560Z,27.00
2018-07-09T09:37:22.414Z,26.90
2018-07-09T09:39:51.388Z,27.10
2018-07-09T09:42:20.200Z,26.90
2018-07-09T09:44:49.020Z,26.90
2018-07-09T09:47:17.830Z,26.90
2018-07-09T09:49:46.651Z,26.80
2018-07-09T09:52:15.724Z,26.50
2018-07-09T09:54:44.532Z,26.50
2018-07-09T09:57:13.341Z,26.70
2018-07-09T09:59:42.173Z,26.90
2018-07-09T10:02:10.980Z,26.70
2018-07-09T10:04:39.788Z,26.90
2018-07-09T10:07:08.655Z,27.10
2018-07-09T10:09:37.575Z,27.20
2018-07-09T10:12:06.628Z,27.00
2018-07-09T10:14:35.445Z,27.00
2018-07-09T10:17:04.433Z,27.10
2018-07-09T10:19:33.243Z,26.90
2018-07-09T10:22:02.127Z,27.00
2018-07-09T10:24:31.163Z,27.10
2018-07-09T10:27:00.013Z,27.00
2018-07-09T10:29:28.828Z,26.70
2018-07-09T10:31:57.632Z,26.80
2018-07-09T10:34:26.440Z,26.90
2018-07-09T10:36:55.248Z,27.10
2018-07-09T10:39:24.060Z,27.30
2018-07-09T10:41:52.854Z,26.80
2018-07-09T10:44:21.654Z,26.30
2018-07-09T10:46:50.468Z,26.20
2018-07-09T10:49:19.332Z,26.10
2018-07-09T10:51:48.133Z,25.90
2018-07-09T10:54:16.941Z,26.00
2018-07-09T10:56:45.777Z,25.90
2018-07-09T10:59:14.576Z,25.70
2018-07-09T11:01:43.389Z,25.70
2018-07-09T11:04:12.196Z,25.60
2018-07-09T11:06:41.013Z,25.90
2018-07-09T11:09:09.876Z,26.10
2018-07-09T11:11:38.696Z,26.10
2018-07-09T11:14:07.498Z,26.10
2018-07-09T11:16:36.313Z,26.20
2018-07-09T11:19:05.158Z,26.00
2018-07-09T11:21:34.236Z,25.70
2018-07-09T11:24:03.032Z,25.80
2018-07-09T11:26:31.849Z,26.00
2018-07-09T11:29:00.656Z,26.00
2018-07-09T11:31:29.463Z,26.10
2018-07-09T11:34:11.504Z,25.80
2018-07-09T11:36:40.325Z,25.50
2018-07-09T11:39:09.127Z,25.60
2018-07-09T11:41:37.937Z,25.60
2018-07-09T11:44:06.727Z,25.80
2018-07-09T11:46:35.576Z,25.80
2018-07-09T11:51:32.953Z,25.20
2018-07-09T11:54:01.752Z,25.10
2018-07-09T11:56:30.682Z,25.00
2018-07-09T11:58:59.553Z,25.00
2018-07-09T12:01:28.284Z,25.00
2018-07-09T12:03:57.086Z,24.90
2018-07-09T12:06:25.902Z,24.80
2018-07-09T12:08:54.720Z,24.90
2018-07-09T12:11:23.526Z,25.00
2018-07-09T12:13:52.648Z,25.10
2018-07-09T12:16:21.448Z,25.20
2018-07-09T12:18:50.294Z,25.30
2018-07-09T12:21:19.100Z,25.10
2018-07-09T12:23:47.883Z,24.90
2018-07-09T12:26:16.695Z,25.00
2018-07-09T12:31:14.085Z,25.00
2018-07-09T12:33:42.897Z,25.00
2018-07-09T12:36:11.779Z,24.80
2018-07-09T12:38:40.536Z,24.80
2018-07-09T12:41:09.348Z,25.00
2018-07-09T12:43:38.173Z,24.90
2018-07-09T12:46:07.205Z,24.80
2018-07-09T12:48:36.040Z,24.70
2018-07-09T12:51:04.848Z,24.60
2018-07-09T12:53:33.664Z,24.80
2018-07-09T12:56:02.477Z,24.90
2018-07-09T12:58:31.304Z,24.70
2018-07-09T13:01:00.119Z,24.70
2018-07-09T13:03:29.042Z,24.80
2018-07-09T13:05:57.843Z,24.70
2018-07-09T13:08:26.652Z,24.90
2018-07-09T13:10:55.548Z,24.50
2018-07-09T13:13:24.340Z,24.30
2018-07-09T13:15:53.328Z,24.20
2018-07-09T13:18:22.121Z,24.10
2018-07-09T13:20:50.925Z,24.20
2018-07-09T13:23:19.748Z,24.40
2018-07-09T13:25:48.648Z,24.60
2018-07-09T13:28:17.463Z,24.60
2018-07-09T13:30:46.259Z,24.50
2018-07-09T13:33:15.072Z,24.50
2018-07-09T13:38:12.371Z,24.60
2018-07-09T13:40:41.177Z,24.80
2018-07-09T13:43:09.997Z,24.90
2018-07-09T13:45:38.792Z,24.80
2018-07-09T13:48:07.976Z,24.90
2018-07-09T13:50:37.137Z,24.90
2018-07-09T13:53:06.048Z,24.90
2018-07-09T13:55:34.862Z,24.80
2018-07-09T13:58:03.676Z,24.90
2018-07-09T14:00:32.623Z,25.00
2018-07-09T14:03:01.418Z,25.00
2018-07-09T14:05:30.228Z,25.00
2018-07-09T14:07:59.931Z,24.90
2018-07-09T14:10:28.772Z,24.80
2018-07-09T14:12:57.581Z,24.70
2018-07-09T14:15:26.379Z,24.90
2018-07-09T14:17:55.196Z,24.90
2018-07-09T14:20:45.523Z,24.80
2018-07-09T14:23:16.589Z,24.70
2018-07-09T14:25:45.456Z,24.50
2018-07-09T14:28:14.269Z,24.40
2018-07-09T14:30:43.069Z,24.40
2018-07-09T14:33:11.910Z,24.20
2018-07-09T14:35:40.718Z,24.00
2018-07-09T14:38:09.534Z,23.90
2018-07-09T14:40:38.343Z,23.70
2018-07-09T14:43:07.160Z,23.50
2018-07-09T14:45:35.974Z,23.50
2018-07-09T14:48:04.821Z,23.60
2018-07-09T14:50:33.637Z,23.90
2018-07-09T14:53:02.431Z,24.10
2018-07-09T14:55:31.337Z,24.20
2018-07-09T14:58:00.243Z,24.30
2018-07-09T15:00:29.028Z,24.30
2018-07-09T15:02:57.840Z,24.30
2018-07-09T15:05:26.653Z,24.20
2018-07-09T15:07:55.589Z,24.30
2018-07-09T15:10:24.390Z,24.20
2018-07-09T15:12:53.197Z,24.30
2018-07-09T15:15:22.006Z,24.20
2018-07-09T15:17:50.852Z,24.40
2018-07-09T15:20:19.668Z,24.70
2018-07-09T15:22:49.007Z,24.80
2018-07-09T15:25:17.854Z,24.80
2018-07-09T15:27:47.320Z,24.70
2018-07-09T15:30:16.138Z,24.60
2018-07-09T15:32:44.955Z,24.40
2018-07-09T15:35:13.764Z,24.30
2018-07-09T15:37:42.588Z,24.30
2018-07-09T15:40:11.604Z,24.40
2018-07-09T15:42:40.407Z,24.50
2018-07-09T15:45:09.212Z,24.60
2018-07-09T15:47:38.012Z,24.60
2018-07-09T15:50:07.514Z,24.60
2018-07-09T15:52:36.400Z,24.40
2018-07-09T15:55:05.316Z,24.20
2018-07-09T15:57:35.053Z,24.30
2018-07-09T16:00:03.903Z,24.20
2018-07-09T16:02:32.685Z,24.20
2018-07-09T16:05:01.495Z,24.20
2018-07-09T16:07:30.314Z,24.00
2018-07-09T16:12:28.166Z,23.70
2018-07-09T16:14:56.960Z,23.70
2018-07-09T16:17:25.752Z,23.50
2018-07-09T16:19:54.566Z,23.30
2018-07-09T16:22:23.372Z,23.10
2018-07-09T16:24:52.195Z,23.00
2018-07-09T16:27:20.997Z,23.10
2018-07-09T16:29:49.813Z,23.10
2018-07-09T16:32:18.627Z,23.10
2018-07-09T16:34:47.465Z,23.10
2018-07-09T16:37:16.268Z,23.10
2018-07-09T16:39:45.120Z,23.10
2018-07-09T16:42:13.888Z,23.10
2018-07-09T16:44:42.701Z,23.00
2018-07-09T16:47:11.504Z,23.10
2018-07-09T16:49:40.384Z,23.00
2018-07-09T16:52:09.204Z,22.90
2018-07-09T16:54:38.056Z,22.90
2018-07-09T16:57:06.808Z,22.80
2018-07-09T16:59:35.632Z,22.80
2018-07-09T17:02:04.456Z,22.60
2018-07-09T17:04:33.712Z,22.50
2018-07-09T17:07:02.537Z,22.30
2018-07-09T17:11:59.841Z,22.20
2018-07-09T17:14:28.631Z,22.20
2018-07-09T17:16:57.535Z,22.10
2018-07-09T17:19:26.345Z,22.10
2018-07-09T17:21:55.212Z,22.00
2018-07-09T17:24:24.003Z,22.00
2018-07-09T17:26:52.908Z,22.00
2018-07-09T17:29:21.647Z,22.10
2018-07-09T17:31:50.464Z,22.10
2018-07-09T17:34:19.276Z,22.10
2018-07-09T17:36:48.115Z,22.00
2018-07-09T17:39:17.031Z,22.00
2018-07-09T17:41:45.846Z,21.90
2018-07-09T17:44:14.674Z,21.80
2018-07-09T17:46:43.480Z,21.80
2018-07-09T17:49:12.296Z,21.70
2018-07-09T17:51:41.127Z,21.60
2018-07-09T17:54:09.936Z,21.40
2018-07-09T17:56:38.756Z,21.30
2018-07-09T17:59:07.551Z,21.20
2018-07-09T18:01:36.439Z,21.20
2018-07-09T18:04:05.332Z,21.10
2018-07-09T18:06:34.160Z,21.00
2018-07-09T18:09:03.342Z,21.00
2018-07-09T18:11:32.153Z,20.90
2018-07-09T18:14:01.023Z,20.80
2018-07-09T18:16:29.784Z,20.80
2018-07-09T18:18:58.632Z,20.70
2018-07-09T18:21:27.429Z,20.70
2018-07-09T18:23:56.225Z,20.60
2018-07-09T18:26:25.045Z,20.50
2018-07-09T18:28:54.100Z,20.50
2018-07-09T18:31:22.971Z,20.50
2018-07-09T18:33:52.328Z,20.40
2018-07-09T18:36:21.116Z,20.30
2018-07-09T18:38:49.984Z,20.20
2018-07-09T18:41:19.683Z,20.10
2018-07-09T18:43:48.578Z,20.00
2018-07-09T18:46:17.464Z,19.90
2018-07-09T18:48:46.386Z,19.90
2018-07-09T18:51:15.154Z,19.80
2018-07-09T18:53:44.047Z,19.70
2018-07-09T18:56:12.854Z,19.60
2018-07-09T18:58:41.660Z,19.60
2018-07-09T19:01:10.459Z,19.50
2018-07-09T19:03:39.274Z,19.40
2018-07-09T19:06:15.877Z,19.40
2018-07-09T19:08:44.684Z,19.30
2018-07-09T19:11:13.501Z,19.30
2018-07-09T19:13:42.345Z,19.20
2018-07-09T19:16:11.157Z,19.20
2018-07-09T19:22:23.277Z,19.20
2018-07-09T19:24:51.208Z,19.20
2018-07-09T19:27:19.140Z,19.10
2018-07-09T19:29:47.063Z,19.10
2018-07-09T19:32:15.006Z,19.00
2018-07-09T19:34:42.960Z,19.00
2018-07-09T19:37:10.928Z,19.00
2018-07-09T19:39:38.804Z,18.90
2018-07-09T19:42:06.747Z,18.90
2018-07-09T19:44:34.768Z,18.80
2018-07-09T19:47:02.680Z,18.80
2018-07-09T19:49:30.654Z,18.80
2018-07-09T19:51:58.593Z,18.80
2018-07-09T19:56:54.616Z,18.70
2018-07-09T19:59:22.542Z,18.60
2018-07-09T20:01:50.482Z,18.60
2018-07-09T20:04:18.408Z,18.50
2018-07-09T20:06:46.330Z,18.40
2018-07-09T20:09:19.659Z,18.30
2018-07-09T20:11:52.228Z,18.30
2018-07-09T20:14:25.712Z,18.20
2018-07-09T20:16:59.072Z,18.20
2018-07-09T20:19:27.015Z,18.20
2018-07-09T20:21:54.943Z,18.30
2018-07-09T20:24:22.904Z,18.30
2018-07-09T20:26:50.888Z,18.30
2018-07-09T20:29:18.948Z,18.20
2018-07-09T20:31:46.875Z,18.20
2018-07-09T20:34:14.808Z,18.20
2018-07-09T20:36:42.745Z,18.20
2018-07-09T20:39:10.685Z,18.10
2018-07-09T20:41:38.613Z,18.10
2018-07-09T20:44:06.588Z,18.00
2018-07-09T20:46:35.037Z,18.00
2018-07-09T20:49:02.976Z,18.00
2018-07-09T20:51:30.916Z,17.90
2018-07-09T20:53:58.847Z,17.80
2018-07-09T20:56:26.772Z,17.80
2018-07-09T20:58:54.733Z,17.80
2018-07-09T21:01:22.651Z,17.70
2018-07-09T21:03:54.849Z,17.70
2018-07-09T21:06:22.784Z,17.70
2018-07-09T21:08:50.715Z,17.60
2018-07-09T21:11:18.652Z,17.60
2018-07-09T21:16:14.823Z,17.50
2018-07-09T21:18:42.624Z,17.40
2018-07-09T21:21:10.561Z,17.40
2018-07-09T21:23:38.492Z,17.30
2018-07-09T21:26:06.420Z,17.30
2018-07-09T21:28:34.413Z,17.30
2018-07-09T21:31:02.280Z,17.20
2018-07-09T21:33:30.208Z,17.20
2018-07-09T21:35:58.168Z,17.20
2018-07-09T21:38:26.143Z,17.10
2018-07-09T21:40:54.073Z,17.10
2018-07-09T21:43:21.995Z,17.10
2018-07-09T21:45:49.933Z,17.10
2018-07-09T21:48:29.775Z,17.20
2018-07-09T21:50:46.373Z,17.10
2018-07-09T21:53:14.346Z,17.10
2018-07-09T21:55:42.236Z,17.10
2018-07-09T21:58:10.192Z,17.10
2018-07-09T22:00:38.122Z,17.10
2018-07-09T22:03:06.052Z,17.00
2018-07-09T22:05:33.982Z,17.00
2018-07-09T22:08:01.919Z,17.00
2018-07-09T22:10:29.877Z,17.00
2018-07-09T22:12:57.811Z,16.90
2018-07-09T22:15:25.816Z,16.90
2018-07-09T22:17:53.725Z,16.90
2018-07-09T22:20:21.681Z,16.90
2018-07-09T22:22:49.618Z,16.80
2018-07-09T22:25:17.557Z,16.80
2018-07-09T22:27:45.484Z,16.80
2018-07-09T22:32:42.358Z,16.70
2018-07-09T22:35:11.170Z,16.70
2018-07-09T22:37:39.970Z,16.70
2018-07-09T22:40:08.808Z,16.70
2018-07-09T22:42:37.555Z,16.70
2018-07-09T22:45:06.392Z,16.70
2018-07-09T22:47:35.196Z,16.60
2018-07-09T22:50:04.041Z,16.60
2018-07-09T22:52:32.835Z,16.60
2018-07-09T22:55:13.234Z,16.60
2018-07-09T22:57:42.023Z,16.50
2018-07-09T23:00:10.850Z,16.50
2018-07-09T23:02:39.407Z,16.50
2018-07-09T23:05:08.241Z,16.40
2018-07-09T23:07:38.811Z,16.40
2018-07-09T23:10:19.148Z,16.40
2018-07-09T23:13:26.787Z,16.40
2018-07-09T23:16:38.376Z,16.40
2018-07-09T23:19:20.668Z,16.40
2018-07-09T23:21:59.892Z,16.30
2018-07-09T23:24:27.858Z,16.30
2018-07-09T23:26:56.139Z,16.30
2018-07-09T23:29:24.101Z,16.30
2018-07-09T23:31:52.060Z,16.30
2018-07-09T23:34:20.152Z,16.30
2018-07-09T23:36:48.097Z,16.20
2018-07-09T23:39:16.103Z,16.20
2018-07-09T23:41:44.036Z,16.10
2018-07-09T23:44:12.004Z,16.00
2018-07-09T23:46:39.927Z,15.80
2018-07-09T23:49:07.859Z,15.80
2018-07-09T23:51:35.810Z,15.70
2018-07-09T23:54:03.781Z,15.70
2018-07-09T23:58:53.410Z,15.70
